Thunder radar more information blitzortung!


Radar de pluja more information rain snow radar


Visita la nostra xarxa de llocs de meteo:

Template documentation
and downloads

And another site



No particular awareness of the weather is required.    There are no Weather-warnings

Pagina Historial Weather Underground text

Diari Resum Novembre 7, 2017 Unitats:  Tant    Imperial   Mètric
« Previous Dia
SegĂźent Dia »
Diari Setmana Mensual Anual Personalitzada
  Maxima: Minima: Media:
Temperatura: 58.3 °F /  14.6 °C 37.4 °F /  3.0 °C 48 °F /  8.9 °C
Punt de rosada: 27.7 °F /  -2.4 °C 12.7 °F /  -10.7 °C 22.6 °F /  -5.2 °C
Humitat: 51 % 29 % 37 %
Wind Speed: 10.4 mph /  16.7 km/h - 3 mph /  4.8 km/h
RĂ fegues de vent: 10.4 mph /  16.7 km/h - -
Vent:- - SSW
Pression baro: 30.1 in /  1019.9 hPa 30 in /  1015.8 hPa -
Precipitacions: 0 in /  0.0 mm    
Historical Graphs
 
 
Dades de taula per Novembre 7, 2017
Temps Temperatura Punt de rosada Pression baro Vent Wind Speed RĂ fegues de vent Humitat Rainfall Rate (Hourly)
00:03 44.6 °F /  7.0 °C 14.4 °F /  -9.8 °C 30 in /  1015.8 hPa SSW 1.2 mph /  1.9 km/h   29 % 0 in /  0.0 mm
00:05 38.1 °F /  3.4 °C 12.7 °F /  -10.7 °C 30.1 in /  1017.8 hPa WSW 1 mph /  1.6 km/h 2 mph /  3.2 km/h 35 % 0 in /  0.0 mm
00:08 44.6 °F /  7.0 °C 14.4 °F /  -9.8 °C 30 in /  1016.8 hPa SSW 4.6 mph /  7.4 km/h 4.6 mph /  7.4 km/h 29 % 0 in /  0.0 mm
00:15 38.3 °F /  3.5 °C 13.6 °F /  -10.2 °C 30.1 in /  1017.8 hPa Calm   1 mph /  1.6 km/h 36 % 0 in /  0.0 mm
00:25 38.1 °F /  3.4 °C 13.5 °F /  -10.3 °C 30 in /  1016.8 hPa Calm   1 mph /  1.6 km/h 36 % 0 in /  0.0 mm
00:45 37.8 °F /  3.2 °C 13.8 °F /  -10.1 °C 30.1 in /  1017.8 hPa WSW 1 mph /  1.6 km/h 3 mph /  4.8 km/h 37 % 0 in /  0.0 mm
00:55 37.9 °F /  3.3 °C 13.8 °F /  -10.1 °C 30.1 in /  1017.8 hPa Calm   2 mph /  3.2 km/h 37 % 0 in /  0.0 mm
01:05 37.8 °F /  3.2 °C 14.4 °F /  -9.8 °C 30.1 in /  1017.8 hPa WNW 1 mph /  1.6 km/h 2 mph /  3.2 km/h 38 % 0 in /  0.0 mm
01:15 37.9 °F /  3.3 °C 15.1 °F /  -9.4 °C 30.1 in /  1017.8 hPa Calm   1 mph /  1.6 km/h 39 % 0 in /  0.0 mm
01:25 37.8 °F /  3.2 °C 15.1 °F /  -9.4 °C 30.1 in /  1017.8 hPa Calm   1 mph /  1.6 km/h 39 % 0 in /  0.0 mm
01:45 37.4 °F /  3.0 °C 15.8 °F /  -9.0 °C 30.1 in /  1017.8 hPa West 1 mph /  1.6 km/h 2 mph /  3.2 km/h 41 % 0 in /  0.0 mm
01:55 37.9 °F /  3.3 °C 16.3 °F /  -8.7 °C 30.1 in /  1017.8 hPa Calm   2 mph /  3.2 km/h 41 % 0 in /  0.0 mm
02:05 39.4 °F /  4.1 °C 18.1 °F /  -7.7 °C 30.1 in /  1017.8 hPa WNW 1 mph /  1.6 km/h 2 mph /  3.2 km/h 42 % 0 in /  0.0 mm
02:15 40.3 °F /  4.6 °C 19 °F /  -7.2 °C 30.1 in /  1018.8 hPa NNE 1 mph /  1.6 km/h 1 mph /  1.6 km/h 42 % 0 in /  0.0 mm
02:25 40.6 °F /  4.8 °C 19.9 °F /  -6.7 °C 30.1 in /  1018.8 hPa Calm   3 mph /  4.8 km/h 43 % 0 in /  0.0 mm
02:35 41.4 °F /  5.2 °C 20.5 °F /  -6.4 °C 30.1 in /  1018.8 hPa North 1 mph /  1.6 km/h 2 mph /  3.2 km/h 43 % 0 in /  0.0 mm
02:45 42.6 °F /  5.9 °C 21.7 °F /  -5.7 °C 30.1 in /  1018.8 hPa North 1 mph /  1.6 km/h 3 mph /  4.8 km/h 43 % 0 in /  0.0 mm
02:55 42.8 °F /  6.0 °C 21.7 °F /  -5.7 °C 30.1 in /  1018.8 hPa North 1 mph /  1.6 km/h 3 mph /  4.8 km/h 43 % 0 in /  0.0 mm
03:05 43.3 °F /  6.3 °C 22.3 °F /  -5.4 °C 30.1 in /  1018.8 hPa North 2 mph /  3.2 km/h 3 mph /  4.8 km/h 43 % 0 in /  0.0 mm
03:15 42.8 °F /  6.0 °C 21.7 °F /  -5.7 °C 30.1 in /  1018.8 hPa NE 3 mph /  4.8 km/h 5 mph /  8.0 km/h 43 % 0 in /  0.0 mm
03:25 44.1 °F /  6.7 °C 23.5 °F /  -4.7 °C 30.1 in /  1018.8 hPa NE 1 mph /  1.6 km/h 2 mph /  3.2 km/h 44 % 0 in /  0.0 mm
03:35 44.2 °F /  6.8 °C 23.7 °F /  -4.6 °C 30.1 in /  1018.8 hPa NE 2 mph /  3.2 km/h 3 mph /  4.8 km/h 44 % 0 in /  0.0 mm
03:45 44.6 °F /  7.0 °C 24.1 °F /  -4.4 °C 30.1 in /  1018.8 hPa NNE 2 mph /  3.2 km/h 5 mph /  8.0 km/h 44 % 0 in /  0.0 mm
03:55 45.3 °F /  7.4 °C 24.6 °F /  -4.1 °C 30.1 in /  1018.8 hPa Calm   4 mph /  6.4 km/h 44 % 0 in /  0.0 mm
04:05 46.2 °F /  7.9 °C 25.5 °F /  -3.6 °C 30.1 in /  1018.8 hPa NNE 2 mph /  3.2 km/h 3 mph /  4.8 km/h 44 % 0 in /  0.0 mm
04:15 47.1 °F /  8.4 °C 26.2 °F /  -3.2 °C 30.1 in /  1018.8 hPa NE 1 mph /  1.6 km/h 3 mph /  4.8 km/h 44 % 0 in /  0.0 mm
10:17 47.3 °F /  8.5 °C 25.9 °F /  -3.4 °C 30.1 in /  1018.8 hPa North 2.3 mph /  3.7 km/h 2.3 mph /  3.7 km/h 43 % 0 in /  0.0 mm
10:18 47.3 °F /  8.5 °C 25.9 °F /  -3.4 °C 30.1 in /  1018.8 hPa NNE 2.3 mph /  3.7 km/h 2.3 mph /  3.7 km/h 43 % 0 in /  0.0 mm
10:24 48.2 °F /  9.0 °C 26.8 °F /  -2.9 °C 30.1 in /  1017.8 hPa WSW 5.8 mph /  9.3 km/h 5.8 mph /  9.3 km/h 43 % 0 in /  0.0 mm
10:29 48.6 °F /  9.2 °C 26.4 °F /  -3.1 °C 30.1 in /  1017.8 hPa West 8.1 mph /  13.0 km/h 8.1 mph /  13.0 km/h 42 % 0 in /  0.0 mm
10:34 48.9 °F /  9.4 °C 26.8 °F /  -2.9 °C 30.1 in /  1017.8 hPa SW 8.1 mph /  13.0 km/h 8.1 mph /  13.0 km/h 42 % 0 in /  0.0 mm
10:39 49.5 °F /  9.7 °C 27.3 °F /  -2.6 °C 30.1 in /  1018.8 hPa West 5.8 mph /  9.3 km/h 5.8 mph /  9.3 km/h 42 % 0 in /  0.0 mm
10:44 50 °F /  10.0 °C 27.1 °F /  -2.7 °C 30.1 in /  1018.8 hPa WNW 3.5 mph /  5.6 km/h 3.5 mph /  5.6 km/h 41 % 0 in /  0.0 mm
10:49 50.2 °F /  10.1 °C 27.3 °F /  -2.6 °C 30.1 in /  1018.8 hPa WSW 5.9 mph /  9.5 km/h 5.9 mph /  9.5 km/h 41 % 0 in /  0.0 mm
10:54 50.5 °F /  10.3 °C 27.1 °F /  -2.7 °C 30.1 in /  1018.8 hPa SSW 4.6 mph /  7.4 km/h 4.6 mph /  7.4 km/h 40 % 0 in /  0.0 mm
10:59 50.7 °F /  10.4 °C 27.1 °F /  -2.7 °C 30.1 in /  1018.8 hPa West 6.9 mph /  11.1 km/h 6.9 mph /  11.1 km/h 40 % 0 in /  0.0 mm
11:04 50.5 °F /  10.3 °C 25.9 °F /  -3.4 °C 30.1 in /  1018.8 hPa West 9.2 mph /  14.8 km/h 9.2 mph /  14.8 km/h 38 % 0 in /  0.0 mm
11:09 51.1 °F /  10.6 °C 26.2 °F /  -3.2 °C 30.1 in /  1018.8 hPa WNW 4.6 mph /  7.4 km/h 4.6 mph /  7.4 km/h 38 % 0 in /  0.0 mm
11:14 51.1 °F /  10.6 °C 25.7 °F /  -3.5 °C 30.1 in /  1018.8 hPa WSW 6.9 mph /  11.1 km/h 6.9 mph /  11.1 km/h 37 % 0 in /  0.0 mm
11:19 51.4 °F /  10.8 °C 26.1 °F /  -3.3 °C 30.1 in /  1018.8 hPa WNW 5.8 mph /  9.3 km/h 5.8 mph /  9.3 km/h 37 % 0 in /  0.0 mm
11:24 51.6 °F /  10.9 °C 25.5 °F /  -3.6 °C 30.1 in /  1018.8 hPa SW 6.9 mph /  11.1 km/h 6.9 mph /  11.1 km/h 36 % 0 in /  0.0 mm
11:29 52 °F /  11.1 °C 25.9 °F /  -3.4 °C 30.1 in /  1018.8 hPa WSW 8.1 mph /  13.0 km/h 8.1 mph /  13.0 km/h 36 % 0 in /  0.0 mm
11:34 52 °F /  11.1 °C 25.2 °F /  -3.8 °C 30.1 in /  1018.8 hPa West 6.9 mph /  11.1 km/h 6.9 mph /  11.1 km/h 35 % 0 in /  0.0 mm
11:39 52.2 °F /  11.2 °C 25.3 °F /  -3.7 °C 30.1 in /  1018.8 hPa West 5.8 mph /  9.3 km/h 5.8 mph /  9.3 km/h 35 % 0 in /  0.0 mm
11:44 52.7 °F /  11.5 °C 25.9 °F /  -3.4 °C 30.1 in /  1018.8 hPa WSW 4.6 mph /  7.4 km/h 4.6 mph /  7.4 km/h 35 % 0 in /  0.0 mm
11:49 53.1 °F /  11.7 °C 26.1 °F /  -3.3 °C 30.1 in /  1018.8 hPa WSW 5.8 mph /  9.3 km/h 5.8 mph /  9.3 km/h 35 % 0 in /  0.0 mm
11:54 53.2 °F /  11.8 °C 25.5 °F /  -3.6 °C 30.1 in /  1018.8 hPa WNW 3.5 mph /  5.6 km/h 3.5 mph /  5.6 km/h 34 % 0 in /  0.0 mm
11:59 53.2 °F /  11.8 °C 25.5 °F /  -3.6 °C 30.1 in /  1018.8 hPa NW 6.9 mph /  11.1 km/h 6.9 mph /  11.1 km/h 34 % 0 in /  0.0 mm
12:04 54 °F /  12.2 °C 26.2 °F /  -3.2 °C 30.1 in /  1018.8 hPa ESE 5.8 mph /  9.3 km/h 5.8 mph /  9.3 km/h 34 % 0 in /  0.0 mm
12:09 54.3 °F /  12.4 °C 26.4 °F /  -3.1 °C 30.1 in /  1018.8 hPa West 6.9 mph /  11.1 km/h 6.9 mph /  11.1 km/h 34 % 0 in /  0.0 mm
12:14 54.5 °F /  12.5 °C 26.8 °F /  -2.9 °C 30.1 in /  1018.8 hPa WSW 5.8 mph /  9.3 km/h 5.8 mph /  9.3 km/h 34 % 0 in /  0.0 mm
12:19 54.5 °F /  12.5 °C 26.1 °F /  -3.3 °C 30.1 in /  1018.8 hPa WSW 6.9 mph /  11.1 km/h 6.9 mph /  11.1 km/h 33 % 0 in /  0.0 mm
12:29 55.6 °F /  13.1 °C 27 °F /  -2.8 °C 30.1 in /  1018.8 hPa West 2.4 mph /  3.9 km/h 2.4 mph /  3.9 km/h 33 % 0 in /  0.0 mm
12:34 55.9 °F /  13.3 °C 27.1 °F /  -2.7 °C 30.1 in /  1018.8 hPa West 4.6 mph /  7.4 km/h 4.6 mph /  7.4 km/h 33 % 0 in /  0.0 mm
12:39 55.9 °F /  13.3 °C 27.1 °F /  -2.7 °C 30.1 in /  1017.8 hPa WNW 8.1 mph /  13.0 km/h 8.1 mph /  13.0 km/h 33 % 0 in /  0.0 mm
12:44 56.3 °F /  13.5 °C 27.5 °F /  -2.5 °C 30.1 in /  1017.8 hPa SSW 8.1 mph /  13.0 km/h 8.1 mph /  13.0 km/h 33 % 0 in /  0.0 mm
12:49 56.3 °F /  13.5 °C 27.5 °F /  -2.5 °C 30.1 in /  1017.8 hPa WNW 5.8 mph /  9.3 km/h 5.8 mph /  9.3 km/h 33 % 0 in /  0.0 mm
12:54 56.3 °F /  13.5 °C 26.8 °F /  -2.9 °C 30.1 in /  1017.8 hPa West 8.1 mph /  13.0 km/h 8.1 mph /  13.0 km/h 32 % 0 in /  0.0 mm
12:59 56.7 °F /  13.7 °C 27.1 °F /  -2.7 °C 30.1 in /  1017.8 hPa WSW 3.5 mph /  5.6 km/h 3.5 mph /  5.6 km/h 32 % 0 in /  0.0 mm
13:04 56.8 °F /  13.8 °C 27.3 °F /  -2.6 °C 30.1 in /  1017.8 hPa West 6.9 mph /  11.1 km/h 6.9 mph /  11.1 km/h 32 % 0 in /  0.0 mm
13:09 56.7 °F /  13.7 °C 27.1 °F /  -2.7 °C 30.1 in /  1017.8 hPa WSW 4.9 mph /  7.9 km/h 4.9 mph /  7.9 km/h 32 % 0 in /  0.0 mm
13:14 57.2 °F /  14.0 °C 27.7 °F /  -2.4 °C 30.1 in /  1017.8 hPa South 6.2 mph /  10.0 km/h 6.2 mph /  10.0 km/h 32 % 0 in /  0.0 mm
13:19 56.7 °F /  13.7 °C 26.2 °F /  -3.2 °C 30.1 in /  1017.8 hPa West 9.2 mph /  14.8 km/h 9.2 mph /  14.8 km/h 31 % 0 in /  0.0 mm
13:24 56.5 °F /  13.6 °C 26.2 °F /  -3.2 °C 30.1 in /  1017.8 hPa WSW 5.8 mph /  9.3 km/h 5.8 mph /  9.3 km/h 31 % 0 in /  0.0 mm
13:29 56.8 °F /  13.8 °C 25.7 °F /  -3.5 °C 30.1 in /  1017.8 hPa West 8.1 mph /  13.0 km/h 8.1 mph /  13.0 km/h 30 % 0 in /  0.0 mm
13:34 56.5 °F /  13.6 °C 25.3 °F /  -3.7 °C 30.1 in /  1017.8 hPa North 6.9 mph /  11.1 km/h 6.9 mph /  11.1 km/h 30 % 0 in /  0.0 mm
13:39 56.5 °F /  13.6 °C 25.3 °F /  -3.7 °C 30.1 in /  1017.8 hPa South 7.4 mph /  11.9 km/h 7.4 mph /  11.9 km/h 30 % 0 in /  0.0 mm
13:44 56.5 °F /  13.6 °C 25.3 °F /  -3.7 °C 30.1 in /  1017.8 hPa WSW 7.1 mph /  11.4 km/h 7.1 mph /  11.4 km/h 30 % 0 in /  0.0 mm
13:49 56.5 °F /  13.6 °C 25.3 °F /  -3.7 °C 30.1 in /  1017.8 hPa West 9.2 mph /  14.8 km/h 9.2 mph /  14.8 km/h 30 % 0 in /  0.0 mm
13:54 56.3 °F /  13.5 °C 24.4 °F /  -4.2 °C 30.1 in /  1017.8 hPa West 5.8 mph /  9.3 km/h 5.8 mph /  9.3 km/h 29 % 0 in /  0.0 mm
13:59 56.3 °F /  13.5 °C 24.4 °F /  -4.2 °C 30.1 in /  1017.8 hPa West 5.8 mph /  9.3 km/h 5.8 mph /  9.3 km/h 29 % 0 in /  0.0 mm
14:04 56.5 °F /  13.6 °C 24.6 °F /  -4.1 °C 30.1 in /  1017.8 hPa SW 9.2 mph /  14.8 km/h 9.2 mph /  14.8 km/h 29 % 0 in /  0.0 mm
14:09 56.7 °F /  13.7 °C 25.5 °F /  -3.6 °C 30 in /  1016.8 hPa SW 8.1 mph /  13.0 km/h 8.1 mph /  13.0 km/h 30 % 0 in /  0.0 mm
14:14 56.8 °F /  13.8 °C 25.7 °F /  -3.5 °C 30 in /  1016.8 hPa West 4.6 mph /  7.4 km/h 4.6 mph /  7.4 km/h 30 % 0 in /  0.0 mm
14:19 57 °F /  13.9 °C 25.9 °F /  -3.4 °C 30 in /  1016.8 hPa SW 6.9 mph /  11.1 km/h 6.9 mph /  11.1 km/h 30 % 0 in /  0.0 mm
14:24 57.2 °F /  14.0 °C 26.1 °F /  -3.3 °C 30.1 in /  1017.8 hPa West 8.1 mph /  13.0 km/h 8.1 mph /  13.0 km/h 30 % 0 in /  0.0 mm
14:34 57.2 °F /  14.0 °C 26.1 °F /  -3.3 °C 30.1 in /  1017.8 hPa WSW 8.1 mph /  13.0 km/h 8.1 mph /  13.0 km/h 30 % 0 in /  0.0 mm
14:39 57.7 °F /  14.3 °C 26.4 °F /  -3.1 °C 30.1 in /  1017.8 hPa West 5.8 mph /  9.3 km/h 5.8 mph /  9.3 km/h 30 % 0 in /  0.0 mm
14:44 57.6 °F /  14.2 °C 26.2 °F /  -3.2 °C 30.1 in /  1017.8 hPa WSW 8.1 mph /  13.0 km/h 8.1 mph /  13.0 km/h 30 % 0 in /  0.0 mm
14:49 57.6 °F /  14.2 °C 26.2 °F /  -3.2 °C 30.1 in /  1017.8 hPa West 6.9 mph /  11.1 km/h 6.9 mph /  11.1 km/h 30 % 0 in /  0.0 mm
14:54 57.7 °F /  14.3 °C 26.4 °F /  -3.1 °C 30.1 in /  1017.8 hPa WSW 6.9 mph /  11.1 km/h 6.9 mph /  11.1 km/h 30 % 0 in /  0.0 mm
14:59 57.9 °F /  14.4 °C 26.6 °F /  -3.0 °C 30.1 in /  1017.8 hPa NW 3.6 mph /  5.8 km/h 3.6 mph /  5.8 km/h 30 % 0 in /  0.0 mm
15:04 58.1 °F /  14.5 °C 26.8 °F /  -2.9 °C 30.1 in /  1017.8 hPa West 5.8 mph /  9.3 km/h 5.8 mph /  9.3 km/h 30 % 0 in /  0.0 mm
15:09 58.1 °F /  14.5 °C 26.8 °F /  -2.9 °C 30.1 in /  1017.8 hPa SW 4.6 mph /  7.4 km/h 4.6 mph /  7.4 km/h 30 % 0 in /  0.0 mm
15:14 58.3 °F /  14.6 °C 27 °F /  -2.8 °C 30.1 in /  1017.8 hPa ENE 4.6 mph /  7.4 km/h 4.6 mph /  7.4 km/h 30 % 0 in /  0.0 mm
15:19 57.9 °F /  14.4 °C 26.6 °F /  -3.0 °C 30.1 in /  1017.8 hPa NW 3.5 mph /  5.6 km/h 3.5 mph /  5.6 km/h 30 % 0 in /  0.0 mm
15:24 58.1 °F /  14.5 °C 26.8 °F /  -2.9 °C 30.1 in /  1017.8 hPa South 3.5 mph /  5.6 km/h 3.5 mph /  5.6 km/h 30 % 0 in /  0.0 mm
15:29 58.1 °F /  14.5 °C 26.8 °F /  -2.9 °C 30.1 in /  1017.8 hPa WSW 9.2 mph /  14.8 km/h 9.2 mph /  14.8 km/h 30 % 0 in /  0.0 mm
15:34 57.9 °F /  14.4 °C 25.9 °F /  -3.4 °C 30.1 in /  1017.8 hPa West 5.8 mph /  9.3 km/h 5.8 mph /  9.3 km/h 29 % 0 in /  0.0 mm
15:36 58.1 °F /  14.5 °C 26.8 °F /  -2.9 °C 30 in /  1016.8 hPa WSW 5.9 mph /  9.5 km/h 5.9 mph /  9.5 km/h 30 % 0 in /  0.0 mm
15:41 58.1 °F /  14.5 °C 26.8 °F /  -2.9 °C 30 in /  1016.8 hPa WSW 5.6 mph /  9.0 km/h 5.6 mph /  9.0 km/h 30 % 0 in /  0.0 mm
15:46 57.7 °F /  14.3 °C 25.7 °F /  -3.5 °C 30 in /  1016.8 hPa SW 8.1 mph /  13.0 km/h 8.1 mph /  13.0 km/h 29 % 0 in /  0.0 mm
15:51 57.9 °F /  14.4 °C 25.9 °F /  -3.4 °C 30.1 in /  1017.8 hPa West 5.6 mph /  9.0 km/h 5.6 mph /  9.0 km/h 29 % 0 in /  0.0 mm
15:56 57.6 °F /  14.2 °C 25.5 °F /  -3.6 °C 30.1 in /  1017.8 hPa WSW 10.4 mph /  16.7 km/h 10.4 mph /  16.7 km/h 29 % 0 in /  0.0 mm
16:01 57.4 °F /  14.1 °C 25.3 °F /  -3.7 °C 30.1 in /  1017.8 hPa WSW 5.8 mph /  9.3 km/h 5.8 mph /  9.3 km/h 29 % 0 in /  0.0 mm
16:06 57.6 °F /  14.2 °C 25.5 °F /  -3.6 °C 30 in /  1016.8 hPa WNW 5.8 mph /  9.3 km/h 5.8 mph /  9.3 km/h 29 % 0 in /  0.0 mm
16:11 57.7 °F /  14.3 °C 26.4 °F /  -3.1 °C 30 in /  1016.8 hPa WSW 3.8 mph /  6.1 km/h 3.8 mph /  6.1 km/h 30 % 0 in /  0.0 mm
16:16 57.6 °F /  14.2 °C 26.2 °F /  -3.2 °C 30 in /  1016.8 hPa South 4.3 mph /  6.9 km/h 4.3 mph /  6.9 km/h 30 % 0 in /  0.0 mm
16:21 57.6 °F /  14.2 °C 25.5 °F /  -3.6 °C 30 in /  1016.8 hPa WSW 5.8 mph /  9.3 km/h 5.8 mph /  9.3 km/h 29 % 0 in /  0.0 mm
16:26 57.6 °F /  14.2 °C 26.2 °F /  -3.2 °C 30 in /  1016.8 hPa West 4.6 mph /  7.4 km/h 4.6 mph /  7.4 km/h 30 % 0 in /  0.0 mm
16:32 57.6 °F /  14.2 °C 26.2 °F /  -3.2 °C 30 in /  1016.8 hPa SW 5.8 mph /  9.3 km/h 5.8 mph /  9.3 km/h 30 % 0 in /  0.0 mm
16:37 57.6 °F /  14.2 °C 26.2 °F /  -3.2 °C 30 in /  1016.8 hPa WSW 5.8 mph /  9.3 km/h 5.8 mph /  9.3 km/h 30 % 0 in /  0.0 mm
16:42 57.6 °F /  14.2 °C 26.2 °F /  -3.2 °C 30 in /  1016.8 hPa WNW 3.5 mph /  5.6 km/h 3.5 mph /  5.6 km/h 30 % 0 in /  0.0 mm
16:52 57.2 °F /  14.0 °C 26.1 °F /  -3.3 °C 30 in /  1016.8 hPa WNW 2.9 mph /  4.7 km/h 2.9 mph /  4.7 km/h 30 % 0 in /  0.0 mm
16:57 56.8 °F /  13.8 °C 25.7 °F /  -3.5 °C 30 in /  1016.8 hPa NW 3.5 mph /  5.6 km/h 3.5 mph /  5.6 km/h 30 % 0 in /  0.0 mm
17:02 56.5 °F /  13.6 °C 25.3 °F /  -3.7 °C 30 in /  1016.8 hPa WNW 2.3 mph /  3.7 km/h 2.3 mph /  3.7 km/h 30 % 0 in /  0.0 mm
17:07 56.5 °F /  13.6 °C 25.3 °F /  -3.7 °C 30 in /  1016.8 hPa West 3.6 mph /  5.8 km/h 3.6 mph /  5.8 km/h 30 % 0 in /  0.0 mm
17:12 55.9 °F /  13.3 °C 25 °F /  -3.9 °C 30 in /  1016.8 hPa West 3.5 mph /  5.6 km/h 3.5 mph /  5.6 km/h 30 % 0 in /  0.0 mm
17:17 55.4 °F /  13.0 °C 24.4 °F /  -4.2 °C 30 in /  1016.8 hPa WSW 2.3 mph /  3.7 km/h 2.3 mph /  3.7 km/h 30 % 0 in /  0.0 mm
17:22 54.7 °F /  12.6 °C 23.7 °F /  -4.6 °C 30 in /  1016.8 hPa WSW 2.3 mph /  3.7 km/h 2.3 mph /  3.7 km/h 30 % 0 in /  0.0 mm
17:27 54.3 °F /  12.4 °C 23.5 °F /  -4.7 °C 30 in /  1016.8 hPa West 1.6 mph /  2.6 km/h 1.6 mph /  2.6 km/h 30 % 0 in /  0.0 mm
17:32 54 °F /  12.2 °C 23.2 °F /  -4.9 °C 30 in /  1016.8 hPa West 2.3 mph /  3.7 km/h 2.3 mph /  3.7 km/h 30 % 0 in /  0.0 mm
17:37 53.6 °F /  12.0 °C 22.8 °F /  -5.1 °C 30.1 in /  1017.8 hPa WSW 2.3 mph /  3.7 km/h   30 % 0 in /  0.0 mm
17:42 53.2 °F /  11.8 °C 22.6 °F /  -5.2 °C 30.1 in /  1017.8 hPa West 2.3 mph /  3.7 km/h 2.3 mph /  3.7 km/h 30 % 0 in /  0.0 mm
17:47 52.7 °F /  11.5 °C 22.1 °F /  -5.5 °C 30.1 in /  1017.8 hPa WSW 1.2 mph /  1.9 km/h 1.2 mph /  1.9 km/h 30 % 0 in /  0.0 mm
17:52 52.3 °F /  11.3 °C 21.7 °F /  -5.7 °C 30.1 in /  1017.8 hPa WSW 1.6 mph /  2.6 km/h 1.6 mph /  2.6 km/h 30 % 0 in /  0.0 mm
17:57 52.2 °F /  11.2 °C 22.5 °F /  -5.3 °C 30.1 in /  1017.8 hPa WSW 2.3 mph /  3.7 km/h 2.3 mph /  3.7 km/h 31 % 0 in /  0.0 mm
18:02 52 °F /  11.1 °C 22.3 °F /  -5.4 °C 30.1 in /  1017.8 hPa West 2.3 mph /  3.7 km/h 2.3 mph /  3.7 km/h 31 % 0 in /  0.0 mm
18:07 51.4 °F /  10.8 °C 21.7 °F /  -5.7 °C 30.1 in /  1017.8 hPa Calm     31 % 0 in /  0.0 mm
18:12 50.9 °F /  10.5 °C 21.4 °F /  -5.9 °C 30.1 in /  1017.8 hPa NNE 2.3 mph /  3.7 km/h 2.3 mph /  3.7 km/h 31 % 0 in /  0.0 mm
18:15 40.1 °F /  4.5 °C 21.6 °F /  -5.8 °C 30.1 in /  1019.9 hPa Calm   1 mph /  1.6 km/h 47 % 0 in /  0.0 mm
18:17 50.5 °F /  10.3 °C 21 °F /  -6.1 °C 30.1 in /  1017.8 hPa NNE 2.3 mph /  3.7 km/h 2.3 mph /  3.7 km/h 31 % 0 in /  0.0 mm
18:22 50.4 °F /  10.2 °C 20.8 °F /  -6.2 °C 30.1 in /  1017.8 hPa NE 2.3 mph /  3.7 km/h 2.3 mph /  3.7 km/h 31 % 0 in /  0.0 mm
18:25 40.1 °F /  4.5 °C 21.9 °F /  -5.6 °C 30.1 in /  1019.9 hPa WSW 2 mph /  3.2 km/h 2 mph /  3.2 km/h 48 % 0 in /  0.0 mm
18:27 50.2 °F /  10.1 °C 20.7 °F /  -6.3 °C 30.1 in /  1017.8 hPa NW 1.2 mph /  1.9 km/h   31 % 0 in /  0.0 mm
18:32 50 °F /  10.0 °C 20.5 °F /  -6.4 °C 30.1 in /  1017.8 hPa WNW 1.4 mph /  2.3 km/h   31 % 0 in /  0.0 mm
18:35 39.6 °F /  4.2 °C 21.6 °F /  -5.8 °C 30.1 in /  1019.9 hPa SW 1 mph /  1.6 km/h 2 mph /  3.2 km/h 48 % 0 in /  0.0 mm
18:37 49.8 °F /  9.9 °C 20.5 °F /  -6.4 °C 30.1 in /  1017.8 hPa NNE 2.3 mph /  3.7 km/h   31 % 0 in /  0.0 mm
18:42 49.8 °F /  9.9 °C 20.5 °F /  -6.4 °C 30.1 in /  1017.8 hPa NNE 2.4 mph /  3.9 km/h 2.4 mph /  3.9 km/h 31 % 0 in /  0.0 mm
18:45 40.1 °F /  4.5 °C 21.9 °F /  -5.6 °C 30.1 in /  1019.9 hPa Calm   1 mph /  1.6 km/h 48 % 0 in /  0.0 mm
18:47 49.5 °F /  9.7 °C 19.9 °F /  -6.7 °C 30.1 in /  1017.8 hPa North 2.3 mph /  3.7 km/h 2.3 mph /  3.7 km/h 31 % 0 in /  0.0 mm
18:52 49.3 °F /  9.6 °C 19.9 °F /  -6.7 °C 30.1 in /  1017.8 hPa NNE 2.3 mph /  3.7 km/h 2.3 mph /  3.7 km/h 31 % 0 in /  0.0 mm
18:55 39.6 °F /  4.2 °C 21.6 °F /  -5.8 °C 30.1 in /  1019.9 hPa WSW 1 mph /  1.6 km/h 2 mph /  3.2 km/h 48 % 0 in /  0.0 mm
18:57 49.3 °F /  9.6 °C 19.9 °F /  -6.7 °C 30.1 in /  1017.8 hPa Calm     31 % 0 in /  0.0 mm
19:02 48.9 °F /  9.4 °C 19.6 °F /  -6.9 °C 30.1 in /  1017.8 hPa Calm     31 % 0 in /  0.0 mm
19:05 39.2 °F /  4.0 °C 21 °F /  -6.1 °C 30.1 in /  1019.9 hPa Calm   2 mph /  3.2 km/h 48 % 0 in /  0.0 mm
19:07 48.9 °F /  9.4 °C 19.6 °F /  -6.9 °C 30.1 in /  1018.8 hPa NW 1.2 mph /  1.9 km/h 1.2 mph /  1.9 km/h 31 % 0 in /  0.0 mm
19:12 48.9 °F /  9.4 °C 20.3 °F /  -6.5 °C 30.1 in /  1018.8 hPa NW 1.2 mph /  1.9 km/h   32 % 0 in /  0.0 mm
19:15 39.4 °F /  4.1 °C 21.4 °F /  -5.9 °C 30.1 in /  1019.9 hPa West 1 mph /  1.6 km/h 2 mph /  3.2 km/h 48 % 0 in /  0.0 mm
19:17 48.9 °F /  9.4 °C 20.3 °F /  -6.5 °C 30.1 in /  1018.8 hPa NW 1.2 mph /  1.9 km/h   32 % 0 in /  0.0 mm
19:22 48.6 °F /  9.2 °C 19.9 °F /  -6.7 °C 30.1 in /  1018.8 hPa Calm     32 % 0 in /  0.0 mm
19:25 39.6 °F /  4.2 °C 21.6 °F /  -5.8 °C 30.1 in /  1019.9 hPa Calm   2 mph /  3.2 km/h 48 % 0 in /  0.0 mm
19:27 48.4 °F /  9.1 °C 19.8 °F /  -6.8 °C 30.1 in /  1018.8 hPa NW 1.2 mph /  1.9 km/h   32 % 0 in /  0.0 mm
19:32 48.4 °F /  9.1 °C 19.8 °F /  -6.8 °C 30.1 in /  1018.8 hPa WNW 1.2 mph /  1.9 km/h 1.2 mph /  1.9 km/h 32 % 0 in /  0.0 mm
19:35 39.7 °F /  4.3 °C 21.6 °F /  -5.8 °C 30.1 in /  1019.9 hPa Calm   1 mph /  1.6 km/h 48 % 0 in /  0.0 mm
19:37 48.4 °F /  9.1 °C 19.8 °F /  -6.8 °C 30.1 in /  1018.8 hPa NNE 1.2 mph /  1.9 km/h   32 % 0 in /  0.0 mm
19:42 48.2 °F /  9.0 °C 19.8 °F /  -6.8 °C 30.1 in /  1018.8 hPa Calm     32 % 0 in /  0.0 mm
19:45 39.9 °F /  4.4 °C 21.7 °F /  -5.7 °C 30.1 in /  1018.8 hPa Calm   1 mph /  1.6 km/h 48 % 0 in /  0.0 mm
19:47 47.8 °F /  8.8 °C 20.1 °F /  -6.6 °C 30.1 in /  1018.8 hPa Calm     33 % 0 in /  0.0 mm
19:52 47.7 °F /  8.7 °C 19.9 °F /  -6.7 °C 30.1 in /  1018.8 hPa North 1.2 mph /  1.9 km/h   33 % 0 in /  0.0 mm
19:55 40.3 °F /  4.6 °C 22.1 °F /  -5.5 °C 30.1 in /  1019.9 hPa WNW 1 mph /  1.6 km/h 2 mph /  3.2 km/h 48 % 0 in /  0.0 mm
19:57 47.7 °F /  8.7 °C 19.9 °F /  -6.7 °C 30.1 in /  1018.8 hPa NW 1.2 mph /  1.9 km/h 1.2 mph /  1.9 km/h 33 % 0 in /  0.0 mm
20:02 47.7 °F /  8.7 °C 19.9 °F /  -6.7 °C 30.1 in /  1018.8 hPa WNW 2.3 mph /  3.7 km/h 2.3 mph /  3.7 km/h 33 % 0 in /  0.0 mm
20:05 39.4 °F /  4.1 °C 21.4 °F /  -5.9 °C 30.1 in /  1019.9 hPa Calm   1 mph /  1.6 km/h 48 % 0 in /  0.0 mm
20:07 47.3 °F /  8.5 °C 19.6 °F /  -6.9 °C 30.1 in /  1019.9 hPa WNW 2.3 mph /  3.7 km/h 2.3 mph /  3.7 km/h 33 % 0 in /  0.0 mm
20:12 47.3 °F /  8.5 °C 19.6 °F /  -6.9 °C 30.1 in /  1019.9 hPa WNW 2.3 mph /  3.7 km/h 2.3 mph /  3.7 km/h 33 % 0 in /  0.0 mm
20:15 38.5 °F /  3.6 °C 21 °F /  -6.1 °C 30.1 in /  1018.8 hPa NNE 2 mph /  3.2 km/h 3 mph /  4.8 km/h 49 % 0 in /  0.0 mm
20:17 47.3 °F /  8.5 °C 19.6 °F /  -6.9 °C 30.1 in /  1019.9 hPa Calm     33 % 0 in /  0.0 mm
20:22 47.1 °F /  8.4 °C 19.6 °F /  -6.9 °C 30.1 in /  1019.9 hPa NNE 2.4 mph /  3.9 km/h 2.4 mph /  3.9 km/h 33 % 0 in /  0.0 mm
20:27 46.8 °F /  8.2 °C 19.8 °F /  -6.8 °C 30.1 in /  1019.9 hPa NE 2.3 mph /  3.7 km/h   34 % 0 in /  0.0 mm
20:32 46.6 °F /  8.1 °C 19.8 °F /  -6.8 °C 30.1 in /  1019.9 hPa WNW 1.4 mph /  2.3 km/h 1.4 mph /  2.3 km/h 34 % 0 in /  0.0 mm
20:35 38.5 °F /  3.6 °C 21 °F /  -6.1 °C 30.1 in /  1019.9 hPa Calm   1 mph /  1.6 km/h 49 % 0 in /  0.0 mm
20:37 45.7 °F /  7.6 °C 18.9 °F /  -7.3 °C 30.1 in /  1019.9 hPa WSW 2.3 mph /  3.7 km/h 2.3 mph /  3.7 km/h 34 % 0 in /  0.0 mm
20:42 45.5 °F /  7.5 °C 18.7 °F /  -7.4 °C 30.1 in /  1019.9 hPa WSW 1.2 mph /  1.9 km/h 1.2 mph /  1.9 km/h 34 % 0 in /  0.0 mm
20:45 38.7 °F /  3.7 °C 21.6 °F /  -5.8 °C 30.1 in /  1019.9 hPa North 1 mph /  1.6 km/h 3 mph /  4.8 km/h 50 % 0 in /  0.0 mm
20:47 45.9 °F /  7.7 °C 19 °F /  -7.2 °C 30.1 in /  1019.9 hPa WNW 1.6 mph /  2.6 km/h 1.6 mph /  2.6 km/h 34 % 0 in /  0.0 mm
20:52 45.9 °F /  7.7 °C 19 °F /  -7.2 °C 30.1 in /  1019.9 hPa WNW 1.4 mph /  2.3 km/h 1.4 mph /  2.3 km/h 34 % 0 in /  0.0 mm
20:55 37.8 °F /  3.2 °C 20.8 °F /  -6.2 °C 30.1 in /  1019.9 hPa West 2 mph /  3.2 km/h 3 mph /  4.8 km/h 50 % 0 in /  0.0 mm
20:57 45.9 °F /  7.7 °C 19 °F /  -7.2 °C 30.1 in /  1019.9 hPa WNW 1.6 mph /  2.6 km/h 1.6 mph /  2.6 km/h 34 % 0 in /  0.0 mm
21:03 45.9 °F /  7.7 °C 19 °F /  -7.2 °C 30.1 in /  1019.9 hPa West 1.4 mph /  2.3 km/h 1.4 mph /  2.3 km/h 34 % 0 in /  0.0 mm
21:05 37.6 °F /  3.1 °C 20.7 °F /  -6.3 °C 30.1 in /  1019.9 hPa WSW 1 mph /  1.6 km/h 3 mph /  4.8 km/h 50 % 0 in /  0.0 mm
21:07 45.5 °F /  7.5 °C 19.4 °F /  -7.0 °C 30.1 in /  1018.8 hPa ESE 4.6 mph /  7.4 km/h 4.6 mph /  7.4 km/h 35 % 0 in /  0.0 mm
21:12 44.6 °F /  7.0 °C 18.7 °F /  -7.4 °C 30.1 in /  1018.8 hPa ENE 3.6 mph /  5.8 km/h 3.6 mph /  5.8 km/h 35 % 0 in /  0.0 mm
21:15 38.3 °F /  3.5 °C 21.4 °F /  -5.9 °C 30.1 in /  1019.9 hPa WSW 2 mph /  3.2 km/h 3 mph /  4.8 km/h 50 % 0 in /  0.0 mm
21:17 44.8 °F /  7.1 °C 19.4 °F /  -7.0 °C 30.1 in /  1018.8 hPa ENE 2.3 mph /  3.7 km/h 2.3 mph /  3.7 km/h 36 % 0 in /  0.0 mm
21:23 44.6 °F /  7.0 °C 19.2 °F /  -7.1 °C 30.1 in /  1019.9 hPa NNE 1.4 mph /  2.3 km/h 1.4 mph /  2.3 km/h 36 % 0 in /  0.0 mm
21:27 44.4 °F /  6.9 °C 19.8 °F /  -6.8 °C 30.1 in /  1019.9 hPa SSW 2.3 mph /  3.7 km/h 2.3 mph /  3.7 km/h 37 % 0 in /  0.0 mm
21:33 43.9 °F /  6.6 °C 19.9 °F /  -6.7 °C 30.1 in /  1019.9 hPa Calm     38 % 0 in /  0.0 mm
21:35 38.8 °F /  3.8 °C 21.7 °F /  -5.7 °C 30.1 in /  1019.9 hPa WSW 2 mph /  3.2 km/h 3 mph /  4.8 km/h 50 % 0 in /  0.0 mm
21:43 43.9 °F /  6.6 °C 20.5 °F /  -6.4 °C 30.1 in /  1019.9 hPa Calm     39 % 0 in /  0.0 mm
21:44 43.7 °F /  6.5 °C 20.3 °F /  -6.5 °C 30.1 in /  1019.9 hPa SSW 1.4 mph /  2.3 km/h   39 % 0 in /  0.0 mm
21:45 39.2 °F /  4.0 °C 22.6 °F /  -5.2 °C 30.1 in /  1019.9 hPa WSW 1 mph /  1.6 km/h 2 mph /  3.2 km/h 51 % 0 in /  0.0 mm
21:54 43.5 °F /  6.4 °C 20.1 °F /  -6.6 °C 30.1 in /  1019.9 hPa WSW 1.4 mph /  2.3 km/h   39 % 0 in /  0.0 mm
21:55 39.6 °F /  4.2 °C 22.5 °F /  -5.3 °C 30.1 in /  1019.9 hPa WSW 1 mph /  1.6 km/h 2 mph /  3.2 km/h 50 % 0 in /  0.0 mm
21:59 43.2 °F /  6.2 °C 20.5 °F /  -6.4 °C 30.1 in /  1019.9 hPa WSW 1.4 mph /  2.3 km/h 1.4 mph /  2.3 km/h 40 % 0 in /  0.0 mm
22:04 43.2 °F /  6.2 °C 20.5 °F /  -6.4 °C 30.1 in /  1019.9 hPa WSW 1.2 mph /  1.9 km/h   40 % 0 in /  0.0 mm
22:05 39.7 °F /  4.3 °C 23.2 °F /  -4.9 °C 30.1 in /  1019.9 hPa NW 1 mph /  1.6 km/h 1 mph /  1.6 km/h 51 % 0 in /  0.0 mm
22:09 43 °F /  6.1 °C 20.8 °F /  -6.2 °C 30.1 in /  1019.9 hPa Calm     41 % 0 in /  0.0 mm
22:14 42.8 °F /  6.0 °C 20.7 °F /  -6.3 °C 30.1 in /  1019.9 hPa WSW 2.3 mph /  3.7 km/h 2.3 mph /  3.7 km/h 41 % 0 in /  0.0 mm
22:15 40.3 °F /  4.6 °C 23.5 °F /  -4.7 °C 30.1 in /  1019.9 hPa North 1 mph /  1.6 km/h 2 mph /  3.2 km/h 51 % 0 in /  0.0 mm
22:19 42.8 °F /  6.0 °C 20.7 °F /  -6.3 °C 30.1 in /  1019.9 hPa Calm     41 % 0 in /  0.0 mm
22:24 42.6 °F /  5.9 °C 20.5 °F /  -6.4 °C 30.1 in /  1019.9 hPa Calm     41 % 0 in /  0.0 mm
22:25 39.7 °F /  4.3 °C 23.2 °F /  -4.9 °C 30.1 in /  1019.9 hPa NNW 1 mph /  1.6 km/h 2 mph /  3.2 km/h 51 % 0 in /  0.0 mm
22:29 42.3 °F /  5.7 °C 20.1 °F /  -6.6 °C 30.1 in /  1019.9 hPa Calm     41 % 0 in /  0.0 mm
22:34 42.3 °F /  5.7 °C 20.8 °F /  -6.2 °C 30.1 in /  1019.9 hPa SE 1.2 mph /  1.9 km/h 1.2 mph /  1.9 km/h 42 % 0 in /  0.0 mm
22:35 39.7 °F /  4.3 °C 23.2 °F /  -4.9 °C 30.1 in /  1019.9 hPa Calm   2 mph /  3.2 km/h 51 % 0 in /  0.0 mm
22:44 41.7 °F /  5.4 °C 20.3 °F /  -6.5 °C 30.1 in /  1019.9 hPa SW 2.3 mph /  3.7 km/h 2.3 mph /  3.7 km/h 42 % 0 in /  0.0 mm
22:45 39.9 °F /  4.4 °C 23.2 °F /  -4.9 °C 30.1 in /  1019.9 hPa Calm   3 mph /  4.8 km/h 51 % 0 in /  0.0 mm
22:49 41.4 °F /  5.2 °C 19.4 °F /  -7.0 °C 30.1 in /  1019.9 hPa SW 2.3 mph /  3.7 km/h 2.3 mph /  3.7 km/h 41 % 0 in /  0.0 mm
22:54 41.4 °F /  5.2 °C 19.9 °F /  -6.7 °C 30.1 in /  1019.9 hPa ENE 1.6 mph /  2.6 km/h   42 % 0 in /  0.0 mm
22:55 39.9 °F /  4.4 °C 23.2 °F /  -4.9 °C 30.1 in /  1019.9 hPa NW 1 mph /  1.6 km/h 2 mph /  3.2 km/h 51 % 0 in /  0.0 mm
22:59 41.4 °F /  5.2 °C 19.9 °F /  -6.7 °C 30.1 in /  1019.9 hPa West 1.6 mph /  2.6 km/h 1.6 mph /  2.6 km/h 42 % 0 in /  0.0 mm
23:04 41.4 °F /  5.2 °C 20.5 °F /  -6.4 °C 30.1 in /  1019.9 hPa SSE 2.3 mph /  3.7 km/h 2.3 mph /  3.7 km/h 43 % 0 in /  0.0 mm
23:05 39.9 °F /  4.4 °C 23.2 °F /  -4.9 °C 30.1 in /  1019.9 hPa Calm   2 mph /  3.2 km/h 51 % 0 in /  0.0 mm
23:09 41.4 °F /  5.2 °C 21 °F /  -6.1 °C 30.1 in /  1019.9 hPa Calm     44 % 0 in /  0.0 mm
23:14 41.4 °F /  5.2 °C 21 °F /  -6.1 °C 30.1 in /  1019.9 hPa Calm     44 % 0 in /  0.0 mm
23:15 39.9 °F /  4.4 °C 23.2 °F /  -4.9 °C 30.1 in /  1018.8 hPa NNE 1 mph /  1.6 km/h 3 mph /  4.8 km/h 51 % 0 in /  0.0 mm
23:19 41.4 °F /  5.2 °C 20.5 °F /  -6.4 °C 30.1 in /  1019.9 hPa WNW 1.4 mph /  2.3 km/h 1.4 mph /  2.3 km/h 43 % 0 in /  0.0 mm
23:24 41.2 °F /  5.1 °C 20.8 °F /  -6.2 °C 30.1 in /  1019.9 hPa NNE 1.4 mph /  2.3 km/h 1.4 mph /  2.3 km/h 44 % 0 in /  0.0 mm
23:25 39.7 °F /  4.3 °C 23.2 °F /  -4.9 °C 30.1 in /  1019.9 hPa NNE 2 mph /  3.2 km/h 2 mph /  3.2 km/h 51 % 0 in /  0.0 mm
23:29 41.2 °F /  5.1 °C 21.4 °F /  -5.9 °C 30.1 in /  1019.9 hPa Calm     45 % 0 in /  0.0 mm
23:34 41 °F /  5.0 °C 21.4 °F /  -5.9 °C 30.1 in /  1019.9 hPa South 1.2 mph /  1.9 km/h   45 % 0 in /  0.0 mm
23:35 39.4 °F /  4.1 °C 22.6 °F /  -5.2 °C 30.1 in /  1019.9 hPa Calm   1 mph /  1.6 km/h 51 % 0 in /  0.0 mm
23:39 40.8 °F /  4.9 °C 21 °F /  -6.1 °C 30.1 in /  1019.9 hPa SW 1.4 mph /  2.3 km/h 1.4 mph /  2.3 km/h 45 % 0 in /  0.0 mm
23:44 40.3 °F /  4.6 °C 21 °F /  -6.1 °C 30.1 in /  1019.9 hPa NNE 1.6 mph /  2.6 km/h   46 % 0 in /  0.0 mm
23:45 39.2 °F /  4.0 °C 22.6 °F /  -5.2 °C 30.1 in /  1019.9 hPa WNW 1 mph /  1.6 km/h 1 mph /  1.6 km/h 51 % 0 in /  0.0 mm
23:49 40.1 °F /  4.5 °C 21 °F /  -6.1 °C 30.1 in /  1019.9 hPa North 2.3 mph /  3.7 km/h 2.3 mph /  3.7 km/h 46 % 0 in /  0.0 mm
23:54 40.1 °F /  4.5 °C 21.6 °F /  -5.8 °C 30.1 in /  1019.9 hPa North 1.2 mph /  1.9 km/h 1.2 mph /  1.9 km/h 47 % 0 in /  0.0 mm
23:55 38.8 °F /  3.8 °C 22.3 °F /  -5.4 °C 30.1 in /  1019.9 hPa WNW 1 mph /  1.6 km/h 1 mph /  1.6 km/h 51 % 0 in /  0.0 mm
23:59 40.1 °F /  4.5 °C 21.6 °F /  -5.8 °C 30.1 in /  1019.9 hPa NE 1.2 mph /  1.9 km/h 1.2 mph /  1.9 km/h 47 % 0 in /  0.0 mm
Meteo Sesrovires
Elogis d' Weather Underground - 3.75 mb

Guio original per  Jim McMurry - jmcmurry@mwt.net Adaptat per a la plantilla per  Wim van der Kuil - Leuven-Template.eu

Trobareu la nostra informacio del temps tambe a:

Weather Underground

AWEKAS